sensor_id;sensor_type;location;lat;lon;timestamp;noise_LAeq;noise_LA_min;noise_LA_max;noise_LA01;noise_LA95
74470;Laerm;62918;55.706;37.816;2024-01-25T00:00:21;48.52;45.35;51.72;;
74470;Laerm;62918;55.706;37.816;2024-01-25T00:00:51;48.90;46.11;53.23;;
74470;Laerm;62918;55.706;37.816;2024-01-25T00:01:22;48.87;44.87;54.77;;
74470;Laerm;62918;55.706;37.816;2024-01-25T00:01:52;49.11;46.11;54.13;;
74470;Laerm;62918;55.706;37.816;2024-01-25T00:02:24;55.78;48.04;62.17;;
74470;Laerm;62918;55.706;37.816;2024-01-25T00:02:54;49.45;45.26;68.15;;
74470;Laerm;62918;55.706;37.816;2024-01-25T00:03:28;52.37;45.67;58.78;;
74470;Laerm;62918;55.706;37.816;2024-01-25T00:03:58;57.14;52.16;61.58;;
74470;Laerm;62918;55.706;37.816;2024-01-25T00:04:29;60.26;52.89;65.37;;
74470;Laerm;62918;55.706;37.816;2024-01-25T00:04:59;54.32;45.50;63.69;;
74470;Laerm;62918;55.706;37.816;2024-01-25T00:05:31;49.89;44.49;59.87;;
74470;Laerm;62918;55.706;37.816;2024-01-25T00:06:01;52.28;44.65;60.26;;
74470;Laerm;62918;55.706;37.816;2024-01-25T00:06:32;46.55;43.98;50.78;;
74470;Laerm;62918;55.706;37.816;2024-01-25T00:07:03;46.66;43.70;50.31;;
74470;Laerm;62918;55.706;37.816;2024-01-25T00:07:33;51.58;46.32;58.39;;
74470;Laerm;62918;55.706;37.816;2024-01-25T00:08:04;54.74;46.79;59.75;;
74470;Laerm;62918;55.706;37.816;2024-01-25T00:08:35;64.57;50.70;73.33;;
74470;Laerm;62918;55.706;37.816;2024-01-25T00:09:05;61.56;54.55;67.50;;
74470;Laerm;62918;55.706;37.816;2024-01-25T00:09:36;61.08;49.26;66.73;;
74470;Laerm;62918;55.706;37.816;2024-01-25T00:10:06;56.12;48.69;62.82;;
74470;Laerm;62918;55.706;37.816;2024-01-25T00:10:37;50.80;46.21;56.73;;
74470;Laerm;62918;55.706;37.816;2024-01-25T00:11:08;55.09;46.51;64.03;;
74470;Laerm;62918;55.706;37.816;2024-01-25T00:11:39;59.54;51.45;67.44;;
74470;Laerm;62918;55.706;37.816;2024-01-25T00:12:10;56.51;49.93;62.31;;
74470;Laerm;62918;55.706;37.816;2024-01-25T00:12:41;59.44;50.65;65.43;;
74470;Laerm;62918;55.706;37.816;2024-01-25T00:13:12;58.61;52.84;64.05;;
74470;Laerm;62918;55.706;37.816;2024-01-25T00:13:43;70.49;57.99;78.77;;
74470;Laerm;62918;55.706;37.816;2024-01-25T00:14:13;68.19;58.60;76.29;;
74470;Laerm;62918;55.706;37.816;2024-01-25T00:14:44;63.30;56.65;69.81;;
74470;Laerm;62918;55.706;37.816;2024-01-25T00:15:14;60.67;50.15;77.35;;
74470;Laerm;62918;55.706;37.816;2024-01-25T00:15:45;52.64;48.11;56.37;;
74470;Laerm;62918;55.706;37.816;2024-01-25T00:16:15;49.91;46.61;54.14;;
74470;Laerm;62918;55.706;37.816;2024-01-25T00:16:46;55.21;48.12;61.29;;
74470;Laerm;62918;55.706;37.816;2024-01-25T00:17:16;59.36;55.20;63.98;;
74470;Laerm;62918;55.706;37.816;2024-01-25T00:17:47;64.72;58.69;68.64;;
74470;Laerm;62918;55.706;37.816;2024-01-25T00:18:17;57.88;54.42;62.43;;
74470;Laerm;62918;55.706;37.816;2024-01-25T00:18:48;54.99;49.25;60.00;;
74470;Laerm;62918;55.706;37.816;2024-01-25T00:19:19;57.93;53.54;64.12;;
74470;Laerm;62918;55.706;37.816;2024-01-25T00:19:49;62.98;56.33;69.62;;
74470;Laerm;62918;55.706;37.816;2024-01-25T00:20:20;58.73;51.04;67.65;;
74470;Laerm;62918;55.706;37.816;2024-01-25T00:20:50;58.62;52.73;64.14;;
74470;Laerm;62918;55.706;37.816;2024-01-25T00:21:21;55.28;49.86;60.56;;
74470;Laerm;62918;55.706;37.816;2024-01-25T00:21:51;60.10;49.55;65.75;;
74470;Laerm;62918;55.706;37.816;2024-01-25T00:22:24;59.59;54.32;64.07;;
74470;Laerm;62918;55.706;37.816;2024-01-25T00:22:55;59.39;55.07;63.34;;
74470;Laerm;62918;55.706;37.816;2024-01-25T00:23:26;58.35;51.19;62.72;;
74470;Laerm;62918;55.706;37.816;2024-01-25T00:23:56;54.74;48.96;62.34;;
74470;Laerm;62918;55.706;37.816;2024-01-25T00:24:27;52.01;48.65;55.29;;
74470;Laerm;62918;55.706;37.816;2024-01-25T00:24:58;62.75;53.76;70.81;;
74470;Laerm;62918;55.706;37.816;2024-01-25T00:25:28;70.94;62.49;76.11;;
74470;Laerm;62918;55.706;37.816;2024-01-25T00:25:59;63.33;57.50;69.12;;
74470;Laerm;62918;55.706;37.816;2024-01-25T00:26:30;58.99;53.21;62.90;;
74470;Laerm;62918;55.706;37.816;2024-01-25T00:27:00;53.17;49.10;57.49;;
74470;Laerm;62918;55.706;37.816;2024-01-25T00:27:31;50.09;46.37;66.40;;
74470;Laerm;62918;55.706;37.816;2024-01-25T00:28:02;60.74;48.40;67.55;;
74470;Laerm;62918;55.706;37.816;2024-01-25T00:28:32;67.49;55.61;73.70;;
74470;Laerm;62918;55.706;37.816;2024-01-25T00:29:04;55.21;49.66;60.73;;
74470;Laerm;62918;55.706;37.816;2024-01-25T00:29:36;61.92;49.50;71.24;;
74470;Laerm;62918;55.706;37.816;2024-01-25T00:30:07;62.43;57.55;69.32;;
74470;Laerm;62918;55.706;37.816;2024-01-25T00:30:38;66.64;55.38;85.10;;
74470;Laerm;62918;55.706;37.816;2024-01-25T00:31:08;60.61;47.63;66.96;;
74470;Laerm;62918;55.706;37.816;2024-01-25T00:31:39;53.01;47.80;57.75;;
74470;Laerm;62918;55.706;37.816;2024-01-25T00:32:10;52.64;46.85;60.72;;
74470;Laerm;62918;55.706;37.816;2024-01-25T00:32:40;57.38;50.59;63.81;;
74470;Laerm;62918;55.706;37.816;2024-01-25T00:33:11;50.08;46.71;57.06;;
74470;Laerm;62918;55.706;37.816;2024-01-25T00:33:41;55.67;48.67;62.03;;
74470;Laerm;62918;55.706;37.816;2024-01-25T00:34:12;54.97;48.52;63.78;;
74470;Laerm;62918;55.706;37.816;2024-01-25T00:34:43;52.63;47.04;59.23;;
74470;Laerm;62918;55.706;37.816;2024-01-25T00:35:14;50.09;46.28;58.14;;
74470;Laerm;62918;55.706;37.816;2024-01-25T00:35:45;58.70;51.00;65.72;;
74470;Laerm;62918;55.706;37.816;2024-01-25T00:36:16;53.30;48.70;59.48;;
74470;Laerm;62918;55.706;37.816;2024-01-25T00:36:47;54.49;48.70;60.22;;
74470;Laerm;62918;55.706;37.816;2024-01-25T00:37:18;56.30;48.64;66.37;;
74470;Laerm;62918;55.706;37.816;2024-01-25T00:37:49;59.02;47.76;78.46;;
74470;Laerm;62918;55.706;37.816;2024-01-25T00:38:19;52.87;46.86;58.58;;
74470;Laerm;62918;55.706;37.816;2024-01-25T00:38:50;51.52;46.47;56.04;;
74470;Laerm;62918;55.706;37.816;2024-01-25T00:39:21;51.58;46.81;57.16;;
74470;Laerm;62918;55.706;37.816;2024-01-25T00:39:52;56.16;47.37;61.55;;
74470;Laerm;62918;55.706;37.816;2024-01-25T00:40:23;55.81;46.21;63.98;;
74470;Laerm;62918;55.706;37.816;2024-01-25T00:40:54;53.20;46.50;70.90;;
74470;Laerm;62918;55.706;37.816;2024-01-25T00:41:25;52.73;45.80;59.43;;
74470;Laerm;62918;55.706;37.816;2024-01-25T00:42:00;49.16;46.58;53.42;;
74470;Laerm;62918;55.706;37.816;2024-01-25T00:42:40;49.87;46.80;54.48;;
74470;Laerm;62918;55.706;37.816;2024-01-25T00:43:11;51.27;46.53;58.08;;
74470;Laerm;62918;55.706;37.816;2024-01-25T00:43:42;52.67;48.07;59.02;;
74470;Laerm;62918;55.706;37.816;2024-01-25T00:44:13;54.24;48.42;58.87;;
74470;Laerm;62918;55.706;37.816;2024-01-25T00:44:44;56.24;46.75;62.64;;
74470;Laerm;62918;55.706;37.816;2024-01-25T00:45:14;48.78;46.18;52.76;;
74470;Laerm;62918;55.706;37.816;2024-01-25T00:45:45;49.03;46.07;52.87;;
74470;Laerm;62918;55.706;37.816;2024-01-25T00:46:16;53.58;45.93;59.55;;
74470;Laerm;62918;55.706;37.816;2024-01-25T00:46:47;51.65;46.95;61.37;;
74470;Laerm;62918;55.706;37.816;2024-01-25T00:47:18;58.41;49.44;64.09;;
74470;Laerm;62918;55.706;37.816;2024-01-25T00:47:49;51.81;46.63;59.69;;
74470;Laerm;62918;55.706;37.816;2024-01-25T00:48:20;50.56;47.23;60.33;;
74470;Laerm;62918;55.706;37.816;2024-01-25T00:48:51;55.09;47.99;62.25;;
74470;Laerm;62918;55.706;37.816;2024-01-25T00:49:22;54.38;47.22;61.71;;
74470;Laerm;62918;55.706;37.816;2024-01-25T00:49:53;56.78;46.57;63.60;;
74470;Laerm;62918;55.706;37.816;2024-01-25T00:50:24;55.51;49.65;60.56;;
74470;Laerm;62918;55.706;37.816;2024-01-25T00:50:56;52.47;46.55;57.84;;
74470;Laerm;62918;55.706;37.816;2024-01-25T00:51:27;59.15;46.77;64.86;;
74470;Laerm;62918;55.706;37.816;2024-01-25T00:52:02;52.04;46.31;63.74;;
74470;Laerm;62918;55.706;37.816;2024-01-25T00:52:33;56.94;49.54;66.94;;
74470;Laerm;62918;55.706;37.816;2024-01-25T00:53:04;53.70;48.44;61.78;;
74470;Laerm;62918;55.706;37.816;2024-01-25T00:53:35;56.59;49.57;63.29;;
74470;Laerm;62918;55.706;37.816;2024-01-25T00:54:06;52.35;45.97;61.36;;
74470;Laerm;62918;55.706;37.816;2024-01-25T00:54:37;56.78;50.08;64.02;;
74470;Laerm;62918;55.706;37.816;2024-01-25T00:55:08;56.33;49.71;62.39;;
74470;Laerm;62918;55.706;37.816;2024-01-25T00:55:38;57.02;49.64;62.67;;
74470;Laerm;62918;55.706;37.816;2024-01-25T00:56:11;55.54;50.12;60.41;;
74470;Laerm;62918;55.706;37.816;2024-01-25T00:56:42;52.28;47.23;58.20;;
74470;Laerm;62918;55.706;37.816;2024-01-25T00:57:13;53.16;47.28;61.43;;
74470;Laerm;62918;55.706;37.816;2024-01-25T00:57:44;58.00;49.48;63.98;;
74470;Laerm;62918;55.706;37.816;2024-01-25T00:58:15;56.81;50.02;63.21;;
74470;Laerm;62918;55.706;37.816;2024-01-25T00:58:45;52.09;44.74;58.53;;
74470;Laerm;62918;55.706;37.816;2024-01-25T00:59:16;50.53;45.30;57.58;;
74470;Laerm;62918;55.706;37.816;2024-01-25T00:59:47;52.09;46.08;67.98;;
74470;Laerm;62918;55.706;37.816;2024-01-25T01:00:18;48.91;45.82;53.81;;
74470;Laerm;62918;55.706;37.816;2024-01-25T01:00:49;59.85;47.95;66.18;;
74470;Laerm;62918;55.706;37.816;2024-01-25T01:01:21;51.89;47.24;58.94;;
74470;Laerm;62918;55.706;37.816;2024-01-25T01:01:55;50.76;47.87;54.44;;
74470;Laerm;62918;55.706;37.816;2024-01-25T01:02:26;54.81;47.60;62.60;;
74470;Laerm;62918;55.706;37.816;2024-01-25T01:03:03;54.15;48.02;60.29;;
74470;Laerm;62918;55.706;37.816;2024-01-25T01:03:35;54.54;47.31;61.79;;
74470;Laerm;62918;55.706;37.816;2024-01-25T01:04:06;54.18;45.74;63.97;;
74470;Laerm;62918;55.706;37.816;2024-01-25T01:04:37;49.24;46.26;52.47;;
74470;Laerm;62918;55.706;37.816;2024-01-25T01:05:08;49.43;46.15;52.40;;
74470;Laerm;62918;55.706;37.816;2024-01-25T01:05:39;54.95;47.64;65.03;;
74470;Laerm;62918;55.706;37.816;2024-01-25T01:06:10;58.43;51.41;67.85;;
74470;Laerm;62918;55.706;37.816;2024-01-25T01:06:41;61.15;54.10;70.08;;
74470;Laerm;62918;55.706;37.816;2024-01-25T01:07:12;60.21;49.73;76.07;;
74470;Laerm;62918;55.706;37.816;2024-01-25T01:07:43;56.00;49.16;63.17;;
74470;Laerm;62918;55.706;37.816;2024-01-25T01:08:15;59.02;51.90;65.95;;
74470;Laerm;62918;55.706;37.816;2024-01-25T01:08:46;52.32;47.39;61.25;;
74470;Laerm;62918;55.706;37.816;2024-01-25T01:09:16;51.39;47.95;57.12;;
74470;Laerm;62918;55.706;37.816;2024-01-25T01:09:48;56.16;49.71;62.46;;
74470;Laerm;62918;55.706;37.816;2024-01-25T01:10:18;57.57;51.69;62.60;;
74470;Laerm;62918;55.706;37.816;2024-01-25T01:10:49;59.83;54.77;67.78;;
74470;Laerm;62918;55.706;37.816;2024-01-25T01:11:19;67.10;60.51;71.33;;
74470;Laerm;62918;55.706;37.816;2024-01-25T01:11:50;63.63;59.33;69.29;;
74470;Laerm;62918;55.706;37.816;2024-01-25T01:12:22;61.82;58.09;66.88;;
74470;Laerm;62918;55.706;37.816;2024-01-25T01:12:53;62.64;53.43;69.96;;
74470;Laerm;62918;55.706;37.816;2024-01-25T01:13:24;53.96;46.66;59.75;;
74470;Laerm;62918;55.706;37.816;2024-01-25T01:13:54;49.97;46.51;56.38;;
74470;Laerm;62918;55.706;37.816;2024-01-25T01:14:25;49.84;46.67;54.88;;
74470;Laerm;62918;55.706;37.816;2024-01-25T01:14:56;52.08;45.64;58.36;;
74470;Laerm;62918;55.706;37.816;2024-01-25T01:15:26;49.25;46.05;52.98;;
74470;Laerm;62918;55.706;37.816;2024-01-25T01:15:57;49.32;46.57;52.15;;
74470;Laerm;62918;55.706;37.816;2024-01-25T01:16:27;53.89;48.05;63.68;;
74470;Laerm;62918;55.706;37.816;2024-01-25T01:17:01;54.37;49.03;59.57;;
74470;Laerm;62918;55.706;37.816;2024-01-25T01:17:31;52.28;48.18;55.65;;
74470;Laerm;62918;55.706;37.816;2024-01-25T01:18:02;50.21;46.29;55.51;;
74470;Laerm;62918;55.706;37.816;2024-01-25T01:18:32;49.31;45.99;56.32;;
74470;Laerm;62918;55.706;37.816;2024-01-25T01:19:03;51.58;46.13;56.88;;
74470;Laerm;62918;55.706;37.816;2024-01-25T01:19:37;50.12;45.36;54.58;;
74470;Laerm;62918;55.706;37.816;2024-01-25T01:20:08;54.44;48.19;59.55;;
74470;Laerm;62918;55.706;37.816;2024-01-25T01:20:39;51.19;46.82;61.58;;
74470;Laerm;62918;55.706;37.816;2024-01-25T01:21:09;50.23;46.79;53.69;;
74470;Laerm;62918;55.706;37.816;2024-01-25T01:21:40;49.53;46.22;53.19;;
74470;Laerm;62918;55.706;37.816;2024-01-25T01:22:14;49.75;46.47;53.15;;
74470;Laerm;62918;55.706;37.816;2024-01-25T01:22:44;49.90;46.71;52.86;;
74470;Laerm;62918;55.706;37.816;2024-01-25T01:23:15;50.77;47.67;53.60;;
74470;Laerm;62918;55.706;37.816;2024-01-25T01:23:45;53.04;48.10;59.93;;
74470;Laerm;62918;55.706;37.816;2024-01-25T01:24:16;50.39;46.75;55.11;;
74470;Laerm;62918;55.706;37.816;2024-01-25T01:24:47;57.41;51.89;65.26;;
74470;Laerm;62918;55.706;37.816;2024-01-25T01:25:17;53.33;46.61;60.12;;
74470;Laerm;62918;55.706;37.816;2024-01-25T01:25:48;52.21;47.37;59.86;;
74470;Laerm;62918;55.706;37.816;2024-01-25T01:26:19;56.68;47.44;63.36;;
74470;Laerm;62918;55.706;37.816;2024-01-25T01:26:49;55.99;47.56;61.37;;
74470;Laerm;62918;55.706;37.816;2024-01-25T01:27:21;50.51;47.37;53.59;;
74470;Laerm;62918;55.706;37.816;2024-01-25T01:27:52;50.36;46.71;53.66;;
74470;Laerm;62918;55.706;37.816;2024-01-25T01:28:22;50.13;46.76;53.02;;
74470;Laerm;62918;55.706;37.816;2024-01-25T01:28:53;50.68;47.52;54.86;;
74470;Laerm;62918;55.706;37.816;2024-01-25T01:29:23;51.23;47.30;57.08;;
74470;Laerm;62918;55.706;37.816;2024-01-25T01:29:54;49.76;46.64;52.86;;
74470;Laerm;62918;55.706;37.816;2024-01-25T01:30:24;51.50;47.39;60.95;;
74470;Laerm;62918;55.706;37.816;2024-01-25T01:30:55;55.73;47.71;61.35;;
74470;Laerm;62918;55.706;37.816;2024-01-25T01:31:25;51.25;46.60;56.41;;
74470;Laerm;62918;55.706;37.816;2024-01-25T01:31:56;51.89;48.28;59.72;;
74470;Laerm;62918;55.706;37.816;2024-01-25T01:32:27;54.19;48.97;62.13;;
74470;Laerm;62918;55.706;37.816;2024-01-25T01:32:57;53.62;47.35;61.22;;
74470;Laerm;62918;55.706;37.816;2024-01-25T01:33:28;56.00;46.96;64.14;;
74470;Laerm;62918;55.706;37.816;2024-01-25T01:33:58;49.56;46.89;53.32;;
74470;Laerm;62918;55.706;37.816;2024-01-25T01:34:29;49.85;46.52;54.00;;
74470;Laerm;62918;55.706;37.816;2024-01-25T01:34:59;52.38;48.95;63.33;;
74470;Laerm;62918;55.706;37.816;2024-01-25T01:35:30;57.84;50.10;67.57;;
74470;Laerm;62918;55.706;37.816;2024-01-25T01:36:00;63.10;48.20;71.22;;
74470;Laerm;62918;55.706;37.816;2024-01-25T01:36:31;58.05;50.56;64.95;;
74470;Laerm;62918;55.706;37.816;2024-01-25T01:37:02;52.20;48.16;59.80;;
74470;Laerm;62918;55.706;37.816;2024-01-25T01:37:32;53.07;48.49;58.98;;
74470;Laerm;62918;55.706;37.816;2024-01-25T01:38:03;51.58;48.28;55.20;;
74470;Laerm;62918;55.706;37.816;2024-01-25T01:38:34;53.50;49.53;57.67;;
74470;Laerm;62918;55.706;37.816;2024-01-25T01:39:04;53.07;48.66;59.97;;
74470;Laerm;62918;55.706;37.816;2024-01-25T01:39:36;52.01;46.77;56.77;;
74470;Laerm;62918;55.706;37.816;2024-01-25T01:40:07;50.00;46.90;54.66;;
74470;Laerm;62918;55.706;37.816;2024-01-25T01:40:38;51.30;46.98;55.98;;
74470;Laerm;62918;55.706;37.816;2024-01-25T01:41:11;54.73;47.68;63.57;;
74470;Laerm;62918;55.706;37.816;2024-01-25T01:41:47;58.40;50.50;63.74;;
74470;Laerm;62918;55.706;37.816;2024-01-25T01:42:18;55.69;48.57;62.88;;
74470;Laerm;62918;55.706;37.816;2024-01-25T01:42:48;58.21;50.94;66.66;;
74470;Laerm;62918;55.706;37.816;2024-01-25T01:43:19;55.54;49.41;62.05;;
74470;Laerm;62918;55.706;37.816;2024-01-25T01:43:54;57.93;51.87;63.74;;
74470;Laerm;62918;55.706;37.816;2024-01-25T01:44:24;57.54;52.84;64.90;;
74470;Laerm;62918;55.706;37.816;2024-01-25T01:44:55;62.93;53.63;77.84;;
74470;Laerm;62918;55.706;37.816;2024-01-25T01:45:26;64.05;52.89;71.45;;
74470;Laerm;62918;55.706;37.816;2024-01-25T01:46:04;60.07;52.44;68.39;;
74470;Laerm;62918;55.706;37.816;2024-01-25T01:46:37;54.27;50.50;57.94;;
74470;Laerm;62918;55.706;37.816;2024-01-25T01:47:12;52.95;48.15;60.39;;
74470;Laerm;62918;55.706;37.816;2024-01-25T01:47:42;58.43;50.67;63.36;;
74470;Laerm;62918;55.706;37.816;2024-01-25T01:48:14;61.49;52.62;65.56;;
74470;Laerm;62918;55.706;37.816;2024-01-25T01:48:45;56.48;49.26;61.45;;
74470;Laerm;62918;55.706;37.816;2024-01-25T01:49:16;53.12;47.96;58.86;;
74470;Laerm;62918;55.706;37.816;2024-01-25T01:49:47;53.95;48.75;59.32;;
74470;Laerm;62918;55.706;37.816;2024-01-25T01:50:18;60.05;50.12;67.09;;
74470;Laerm;62918;55.706;37.816;2024-01-25T01:50:49;53.13;48.11;60.73;;
74470;Laerm;62918;55.706;37.816;2024-01-25T01:51:20;53.66;47.91;58.54;;
74470;Laerm;62918;55.706;37.816;2024-01-25T01:51:51;50.34;46.44;58.57;;
74470;Laerm;62918;55.706;37.816;2024-01-25T01:52:21;51.33;45.38;73.04;;
74470;Laerm;62918;55.706;37.816;2024-01-25T01:52:52;49.36;45.79;55.69;;
74470;Laerm;62918;55.706;37.816;2024-01-25T01:53:23;50.60;46.94;59.81;;
74470;Laerm;62918;55.706;37.816;2024-01-25T01:53:54;55.52;48.24;64.07;;
74470;Laerm;62918;55.706;37.816;2024-01-25T01:54:26;58.39;50.14;69.24;;
74470;Laerm;62918;55.706;37.816;2024-01-25T01:54:56;54.26;50.58;59.67;;
74470;Laerm;62918;55.706;37.816;2024-01-25T01:55:27;57.04;48.69;63.98;;
74470;Laerm;62918;55.706;37.816;2024-01-25T01:55:58;58.35;48.94;62.94;;
74470;Laerm;62918;55.706;37.816;2024-01-25T01:56:29;53.35;49.47;57.50;;
74470;Laerm;62918;55.706;37.816;2024-01-25T01:57:00;51.29;48.37;56.67;;
74470;Laerm;62918;55.706;37.816;2024-01-25T01:57:32;52.45;48.49;57.53;;
74470;Laerm;62918;55.706;37.816;2024-01-25T01:58:03;55.67;48.60;66.17;;
74470;Laerm;62918;55.706;37.816;2024-01-25T01:58:34;59.28;53.22;64.45;;
74470;Laerm;62918;55.706;37.816;2024-01-25T01:59:09;52.65;48.78;58.99;;
74470;Laerm;62918;55.706;37.816;2024-01-25T01:59:41;56.24;51.34;61.24;;
74470;Laerm;62918;55.706;37.816;2024-01-25T02:00:14;52.47;46.14;60.65;;
74470;Laerm;62918;55.706;37.816;2024-01-25T02:00:48;51.76;48.19;66.25;;
74470;Laerm;62918;55.706;37.816;2024-01-25T02:01:20;58.02;50.82;65.18;;
74470;Laerm;62918;55.706;37.816;2024-01-25T02:01:52;55.40;48.62;61.09;;
74470;Laerm;62918;55.706;37.816;2024-01-25T02:02:22;51.34;48.10;57.58;;
74470;Laerm;62918;55.706;37.816;2024-01-25T02:02:54;52.88;48.73;57.50;;
74470;Laerm;62918;55.706;37.816;2024-01-25T02:03:25;54.24;48.93;64.35;;
74470;Laerm;62918;55.706;37.816;2024-01-25T02:03:55;53.39;48.10;76.30;;
74470;Laerm;62918;55.706;37.816;2024-01-25T02:04:26;56.65;48.78;64.56;;
74470;Laerm;62918;55.706;37.816;2024-01-25T02:04:56;56.68;49.10;63.98;;
74470;Laerm;62918;55.706;37.816;2024-01-25T02:05:27;53.30;49.27;58.78;;
74470;Laerm;62918;55.706;37.816;2024-01-25T02:05:58;59.07;50.63;65.89;;
74470;Laerm;62918;55.706;37.816;2024-01-25T02:06:33;55.52;50.88;61.83;;
74470;Laerm;62918;55.706;37.816;2024-01-25T02:07:04;57.69;50.06;62.82;;
74470;Laerm;62918;55.706;37.816;2024-01-25T02:07:35;52.64;47.95;59.74;;
74470;Laerm;62918;55.706;37.816;2024-01-25T02:08:05;50.95;47.63;64.77;;
74470;Laerm;62918;55.706;37.816;2024-01-25T02:08:36;51.93;48.34;60.17;;
74470;Laerm;62918;55.706;37.816;2024-01-25T02:09:07;52.53;48.22;60.92;;
74470;Laerm;62918;55.706;37.816;2024-01-25T02:09:37;59.05;48.99;66.13;;
74470;Laerm;62918;55.706;37.816;2024-01-25T02:10:08;57.08;50.58;64.40;;
74470;Laerm;62918;55.706;37.816;2024-01-25T02:10:39;51.47;47.00;61.34;;
74470;Laerm;62918;55.706;37.816;2024-01-25T02:11:13;52.54;48.37;60.61;;
74470;Laerm;62918;55.706;37.816;2024-01-25T02:11:43;56.84;49.78;63.06;;
74470;Laerm;62918;55.706;37.816;2024-01-25T02:12:16;58.90;50.04;65.08;;
74470;Laerm;62918;55.706;37.816;2024-01-25T02:12:47;56.95;50.08;64.44;;
74470;Laerm;62918;55.706;37.816;2024-01-25T02:13:18;57.34;52.04;63.27;;
74470;Laerm;62918;55.706;37.816;2024-01-25T02:13:48;58.20;51.71;65.15;;
74470;Laerm;62918;55.706;37.816;2024-01-25T02:14:19;58.32;50.58;63.86;;
74470;Laerm;62918;55.706;37.816;2024-01-25T02:14:49;58.11;53.05;62.61;;
74470;Laerm;62918;55.706;37.816;2024-01-25T02:15:20;60.52;52.19;66.21;;
74470;Laerm;62918;55.706;37.816;2024-01-25T02:15:51;60.96;50.09;81.44;;
74470;Laerm;62918;55.706;37.816;2024-01-25T02:16:21;52.58;49.66;60.86;;
74470;Laerm;62918;55.706;37.816;2024-01-25T02:16:52;57.18;51.09;62.11;;
74470;Laerm;62918;55.706;37.816;2024-01-25T02:17:24;56.35;51.18;63.97;;
74470;Laerm;62918;55.706;37.816;2024-01-25T02:17:55;61.36;55.22;69.36;;
74470;Laerm;62918;55.706;37.816;2024-01-25T02:18:26;60.33;53.19;67.59;;
74470;Laerm;62918;55.706;37.816;2024-01-25T02:18:57;57.69;52.23;61.82;;
74470;Laerm;62918;55.706;37.816;2024-01-25T02:19:28;56.86;50.28;61.82;;
74470;Laerm;62918;55.706;37.816;2024-01-25T02:19:58;53.51;49.82;59.92;;
74470;Laerm;62918;55.706;37.816;2024-01-25T02:20:29;53.81;47.94;60.61;;
74470;Laerm;62918;55.706;37.816;2024-01-25T02:21:00;54.67;48.12;62.24;;
74470;Laerm;62918;55.706;37.816;2024-01-25T02:21:30;56.98;49.55;64.32;;
74470;Laerm;62918;55.706;37.816;2024-01-25T02:22:04;55.31;49.75;64.48;;
74470;Laerm;62918;55.706;37.816;2024-01-25T02:22:35;55.38;49.66;59.40;;
74470;Laerm;62918;55.706;37.816;2024-01-25T02:23:05;52.08;48.83;57.43;;
74470;Laerm;62918;55.706;37.816;2024-01-25T02:23:36;54.28;49.05;70.80;;
74470;Laerm;62918;55.706;37.816;2024-01-25T02:24:07;55.18;51.71;60.59;;
74470;Laerm;62918;55.706;37.816;2024-01-25T02:24:37;60.79;52.69;66.16;;
74470;Laerm;62918;55.706;37.816;2024-01-25T02:25:08;58.19;53.21;64.76;;
74470;Laerm;62918;55.706;37.816;2024-01-25T02:25:38;59.80;52.34;65.10;;
74470;Laerm;62918;55.706;37.816;2024-01-25T02:26:09;58.87;51.81;65.64;;
74470;Laerm;62918;55.706;37.816;2024-01-25T02:26:40;58.48;53.45;69.34;;
74470;Laerm;62918;55.706;37.816;2024-01-25T02:27:10;63.97;55.56;70.08;;
74470;Laerm;62918;55.706;37.816;2024-01-25T02:27:41;58.97;55.12;63.73;;
74470;Laerm;62918;55.706;37.816;2024-01-25T02:28:11;66.54;58.22;72.14;;
74470;Laerm;62918;55.706;37.816;2024-01-25T02:28:42;54.55;50.34;62.43;;
74470;Laerm;62918;55.706;37.816;2024-01-25T02:29:12;59.58;52.98;64.33;;
74470;Laerm;62918;55.706;37.816;2024-01-25T02:29:43;60.07;53.53;65.70;;
74470;Laerm;62918;55.706;37.816;2024-01-25T02:30:14;55.52;51.26;61.35;;
74470;Laerm;62918;55.706;37.816;2024-01-25T02:30:44;57.23;48.84;63.80;;
74470;Laerm;62918;55.706;37.816;2024-01-25T02:31:15;57.12;48.62;63.93;;
74470;Laerm;62918;55.706;37.816;2024-01-25T02:31:46;59.39;51.16;66.12;;
74470;Laerm;62918;55.706;37.816;2024-01-25T02:32:16;60.33;50.02;79.72;;
74470;Laerm;62918;55.706;37.816;2024-01-25T02:32:47;60.49;50.29;68.64;;
74470;Laerm;62918;55.706;37.816;2024-01-25T02:33:17;58.25;51.46;64.89;;
74470;Laerm;62918;55.706;37.816;2024-01-25T02:33:48;59.08;51.86;70.26;;
74470;Laerm;62918;55.706;37.816;2024-01-25T02:34:19;59.69;52.96;65.75;;
74470;Laerm;62918;55.706;37.816;2024-01-25T02:34:49;60.48;55.56;64.67;;
74470;Laerm;62918;55.706;37.816;2024-01-25T02:35:20;61.33;54.49;68.27;;
74470;Laerm;62918;55.706;37.816;2024-01-25T02:35:50;64.56;58.63;69.72;;
74470;Laerm;62918;55.706;37.816;2024-01-25T02:36:24;57.53;50.09;63.35;;
74470;Laerm;62918;55.706;37.816;2024-01-25T02:36:54;57.16;53.06;62.73;;
74470;Laerm;62918;55.706;37.816;2024-01-25T02:37:25;57.51;49.49;66.41;;
74470;Laerm;62918;55.706;37.816;2024-01-25T02:37:56;61.97;54.33;74.57;;
74470;Laerm;62918;55.706;37.816;2024-01-25T02:38:27;58.34;52.02;64.27;;
74470;Laerm;62918;55.706;37.816;2024-01-25T02:38:57;53.49;49.01;70.10;;
74470;Laerm;62918;55.706;37.816;2024-01-25T02:39:28;56.07;49.67;65.65;;
74470;Laerm;62918;55.706;37.816;2024-01-25T02:39:58;54.71;49.47;65.60;;
74470;Laerm;62918;55.706;37.816;2024-01-25T02:40:29;59.26;54.18;62.75;;
74470;Laerm;62918;55.706;37.816;2024-01-25T02:41:00;58.26;53.32;62.99;;
74470;Laerm;62918;55.706;37.816;2024-01-25T02:41:31;56.11;51.39;62.17;;
74470;Laerm;62918;55.706;37.816;2024-01-25T02:42:02;57.94;51.76;63.18;;
74470;Laerm;62918;55.706;37.816;2024-01-25T02:42:32;56.02;51.15;60.68;;
74470;Laerm;62918;55.706;37.816;2024-01-25T02:43:03;62.47;54.31;70.30;;
74470;Laerm;62918;55.706;37.816;2024-01-25T02:43:34;59.84;54.54;65.07;;
74470;Laerm;62918;55.706;37.816;2024-01-25T02:44:04;57.33;51.86;62.97;;
74470;Laerm;62918;55.706;37.816;2024-01-25T02:44:35;57.64;51.22;62.37;;
74470;Laerm;62918;55.706;37.816;2024-01-25T02:45:06;61.54;57.15;67.92;;
74470;Laerm;62918;55.706;37.816;2024-01-25T02:45:36;65.69;55.84;73.61;;
74470;Laerm;62918;55.706;37.816;2024-01-25T02:46:07;59.93;53.37;66.59;;
74470;Laerm;62918;55.706;37.816;2024-01-25T02:46:38;60.73;54.68;67.04;;
74470;Laerm;62918;55.706;37.816;2024-01-25T02:47:09;57.49;52.71;62.45;;
74470;Laerm;62918;55.706;37.816;2024-01-25T02:47:39;58.20;52.65;63.76;;
74470;Laerm;62918;55.706;37.816;2024-01-25T02:48:10;58.85;52.62;62.77;;
74470;Laerm;62918;55.706;37.816;2024-01-25T02:48:40;57.83;50.95;63.33;;
74470;Laerm;62918;55.706;37.816;2024-01-25T02:49:11;62.25;56.09;67.54;;
74470;Laerm;62918;55.706;37.816;2024-01-25T02:49:41;55.44;50.20;60.54;;
74470;Laerm;62918;55.706;37.816;2024-01-25T02:50:12;62.67;50.68;69.46;;
74470;Laerm;62918;55.706;37.816;2024-01-25T02:50:43;57.94;52.01;64.57;;
74470;Laerm;62918;55.706;37.816;2024-01-25T02:51:13;64.46;58.35;72.44;;